sensor_id;sensor_type;location;lat;lon;timestamp;temperature;humidity
41668;DHT22;27356;50.920;5.350;2023-04-07T00:02:16;9.70;99.90
41668;DHT22;27356;50.920;5.350;2023-04-07T00:04:41;9.70;99.90
41668;DHT22;27356;50.920;5.350;2023-04-07T00:07:07;9.80;99.90
41668;DHT22;27356;50.920;5.350;2023-04-07T00:09:33;9.80;99.90
41668;DHT22;27356;50.920;5.350;2023-04-07T00:11:59;9.80;99.90
41668;DHT22;27356;50.920;5.350;2023-04-07T00:14:27;9.90;99.90
41668;DHT22;27356;50.920;5.350;2023-04-07T00:16:53;10.00;99.90
41668;DHT22;27356;50.920;5.350;2023-04-07T00:19:19;10.00;99.90
41668;DHT22;27356;50.920;5.350;2023-04-07T00:21:44;9.90;99.90
41668;DHT22;27356;50.920;5.350;2023-04-07T00:24:10;9.90;99.90
41668;DHT22;27356;50.920;5.350;2023-04-07T00:26:36;9.80;99.90
41668;DHT22;27356;50.920;5.350;2023-04-07T00:29:02;9.90;99.90
41668;DHT22;27356;50.920;5.350;2023-04-07T00:31:28;10.00;99.90
41668;DHT22;27356;50.920;5.350;2023-04-07T00:33:54;9.90;99.90
41668;DHT22;27356;50.920;5.350;2023-04-07T00:36:20;9.80;99.90
41668;DHT22;27356;50.920;5.350;2023-04-07T00:38:46;9.90;99.90
41668;DHT22;27356;50.920;5.350;2023-04-07T00:41:11;9.90;99.90
41668;DHT22;27356;50.920;5.350;2023-04-07T00:43:37;9.90;99.90
41668;DHT22;27356;50.920;5.350;2023-04-07T00:46:03;9.90;99.90
41668;DHT22;27356;50.920;5.350;2023-04-07T00:48:29;9.80;99.90
41668;DHT22;27356;50.920;5.350;2023-04-07T00:50:55;9.70;99.90
41668;DHT22;27356;50.920;5.350;2023-04-07T00:53:21;9.70;99.90
41668;DHT22;27356;50.920;5.350;2023-04-07T00:55:47;9.70;99.90
41668;DHT22;27356;50.920;5.350;2023-04-07T00:58:13;9.60;99.90
41668;DHT22;27356;50.920;5.350;2023-04-07T01:00:50;9.60;99.90
41668;DHT22;27356;50.920;5.350;2023-04-07T01:03:32;9.60;99.90
41668;DHT22;27356;50.920;5.350;2023-04-07T01:06:00;9.50;99.90
41668;DHT22;27356;50.920;5.350;2023-04-07T01:08:36;9.50;99.90
41668;DHT22;27356;50.920;5.350;2023-04-07T01:14:05;9.40;99.90
41668;DHT22;27356;50.920;5.350;2023-04-07T01:16:37;9.40;99.90
41668;DHT22;27356;50.920;5.350;2023-04-07T01:21:47;9.50;99.90
41668;DHT22;27356;50.920;5.350;2023-04-07T01:27:18;9.40;99.90
41668;DHT22;27356;50.920;5.350;2023-04-07T01:29:46;9.30;99.90
41668;DHT22;27356;50.920;5.350;2023-04-07T01:32:17;9.30;99.90
41668;DHT22;27356;50.920;5.350;2023-04-07T01:34:47;9.20;99.90
41668;DHT22;27356;50.920;5.350;2023-04-07T01:37:14;9.20;99.90
41668;DHT22;27356;50.920;5.350;2023-04-07T01:39:41;9.10;99.90
41668;DHT22;27356;50.920;5.350;2023-04-07T01:42:07;9.10;99.90
41668;DHT22;27356;50.920;5.350;2023-04-07T01:44:34;9.10;99.90
41668;DHT22;27356;50.920;5.350;2023-04-07T01:47:00;9.10;99.90
41668;DHT22;27356;50.920;5.350;2023-04-07T01:49:28;9.10;99.90
41668;DHT22;27356;50.920;5.350;2023-04-07T01:51:55;9.20;99.90
41668;DHT22;27356;50.920;5.350;2023-04-07T01:54:22;9.30;99.90
41668;DHT22;27356;50.920;5.350;2023-04-07T01:56:48;9.30;99.90
41668;DHT22;27356;50.920;5.350;2023-04-07T01:59:14;9.30;99.90
41668;DHT22;27356;50.920;5.350;2023-04-07T02:01:42;9.30;99.90
41668;DHT22;27356;50.920;5.350;2023-04-07T02:04:34;9.40;99.90
41668;DHT22;27356;50.920;5.350;2023-04-07T02:07:40;9.30;99.90
41668;DHT22;27356;50.920;5.350;2023-04-07T02:10:11;9.20;99.90
41668;DHT22;27356;50.920;5.350;2023-04-07T02:12:38;9.20;99.90
41668;DHT22;27356;50.920;5.350;2023-04-07T02:15:10;9.10;99.90
41668;DHT22;27356;50.920;5.350;2023-04-07T02:17:38;9.10;99.90
41668;DHT22;27356;50.920;5.350;2023-04-07T02:20:06;9.10;99.90
41668;DHT22;27356;50.920;5.350;2023-04-07T02:22:32;9.10;99.90
41668;DHT22;27356;50.920;5.350;2023-04-07T02:24:58;9.00;99.90
41668;DHT22;27356;50.920;5.350;2023-04-07T02:27:24;9.00;99.90
41668;DHT22;27356;50.920;5.350;2023-04-07T02:29:49;9.00;99.90
41668;DHT22;27356;50.920;5.350;2023-04-07T02:32:15;9.10;99.90
41668;DHT22;27356;50.920;5.350;2023-04-07T02:34:42;9.20;99.90
41668;DHT22;27356;50.920;5.350;2023-04-07T02:37:08;9.20;99.90
41668;DHT22;27356;50.920;5.350;2023-04-07T02:39:33;9.30;99.90
41668;DHT22;27356;50.920;5.350;2023-04-07T02:41:59;9.30;99.90
41668;DHT22;27356;50.920;5.350;2023-04-07T02:44:25;9.30;99.90
41668;DHT22;27356;50.920;5.350;2023-04-07T02:46:51;9.20;99.90
41668;DHT22;27356;50.920;5.350;2023-04-07T02:49:16;9.30;99.90
41668;DHT22;27356;50.920;5.350;2023-04-07T02:51:42;9.30;99.90
41668;DHT22;27356;50.920;5.350;2023-04-07T02:54:07;9.20;99.90
41668;DHT22;27356;50.920;5.350;2023-04-07T02:56:33;9.30;99.90
41668;DHT22;27356;50.920;5.350;2023-04-07T02:58:59;9.30;99.90
41668;DHT22;27356;50.920;5.350;2023-04-07T03:01:24;9.30;99.90
41668;DHT22;27356;50.920;5.350;2023-04-07T03:03:50;9.30;99.90
41668;DHT22;27356;50.920;5.350;2023-04-07T03:06:16;9.30;99.90
41668;DHT22;27356;50.920;5.350;2023-04-07T03:08:42;9.30;99.90
41668;DHT22;27356;50.920;5.350;2023-04-07T03:11:07;9.20;99.90
41668;DHT22;27356;50.920;5.350;2023-04-07T03:13:33;9.20;99.90
41668;DHT22;27356;50.920;5.350;2023-04-07T03:15:59;9.20;99.90
41668;DHT22;27356;50.920;5.350;2023-04-07T03:18:24;9.20;99.90
41668;DHT22;27356;50.920;5.350;2023-04-07T03:20:50;9.30;99.90
41668;DHT22;27356;50.920;5.350;2023-04-07T03:23:17;9.30;99.90
41668;DHT22;27356;50.920;5.350;2023-04-07T03:25:43;9.30;99.90
41668;DHT22;27356;50.920;5.350;2023-04-07T03:28:09;9.40;99.90
41668;DHT22;27356;50.920;5.350;2023-04-07T03:30:35;9.30;99.90
41668;DHT22;27356;50.920;5.350;2023-04-07T03:33:01;9.30;99.90
41668;DHT22;27356;50.920;5.350;2023-04-07T03:35:27;9.30;99.90
41668;DHT22;27356;50.920;5.350;2023-04-07T03:37:52;9.40;99.90
41668;DHT22;27356;50.920;5.350;2023-04-07T03:40:18;9.30;99.90
41668;DHT22;27356;50.920;5.350;2023-04-07T03:42:44;9.30;99.90
41668;DHT22;27356;50.920;5.350;2023-04-07T03:45:11;9.20;99.90
41668;DHT22;27356;50.920;5.350;2023-04-07T03:47:36;9.10;99.90
41668;DHT22;27356;50.920;5.350;2023-04-07T03:50:02;9.10;99.90
41668;DHT22;27356;50.920;5.350;2023-04-07T03:52:28;9.20;99.90
41668;DHT22;27356;50.920;5.350;2023-04-07T03:54:53;9.20;99.90
41668;DHT22;27356;50.920;5.350;2023-04-07T03:57:19;9.10;99.90
41668;DHT22;27356;50.920;5.350;2023-04-07T03:59:45;9.10;99.90
41668;DHT22;27356;50.920;5.350;2023-04-07T04:02:12;9.30;99.90
41668;DHT22;27356;50.920;5.350;2023-04-07T04:04:38;9.30;99.90
41668;DHT22;27356;50.920;5.350;2023-04-07T04:07:03;9.30;99.90
41668;DHT22;27356;50.920;5.350;2023-04-07T04:09:29;9.20;99.90
41668;DHT22;27356;50.920;5.350;2023-04-07T04:11:55;9.10;99.90
41668;DHT22;27356;50.920;5.350;2023-04-07T04:14:21;9.10;99.90
41668;DHT22;27356;50.920;5.350;2023-04-07T04:16:47;9.00;99.90
41668;DHT22;27356;50.920;5.350;2023-04-07T04:19:12;9.00;99.90
41668;DHT22;27356;50.920;5.350;2023-04-07T04:21:38;9.00;99.90
41668;DHT22;27356;50.920;5.350;2023-04-07T04:24:04;9.10;99.90
41668;DHT22;27356;50.920;5.350;2023-04-07T04:26:29;9.10;99.90
41668;DHT22;27356;50.920;5.350;2023-04-07T04:28:55;9.10;99.90
41668;DHT22;27356;50.920;5.350;2023-04-07T04:31:21;9.00;99.90
41668;DHT22;27356;50.920;5.350;2023-04-07T04:33:47;9.00;99.90
41668;DHT22;27356;50.920;5.350;2023-04-07T04:36:12;9.10;99.90
41668;DHT22;27356;50.920;5.350;2023-04-07T04:38:38;9.10;99.90
41668;DHT22;27356;50.920;5.350;2023-04-07T04:41:04;9.10;99.90
41668;DHT22;27356;50.920;5.350;2023-04-07T04:43:30;9.00;99.90
41668;DHT22;27356;50.920;5.350;2023-04-07T04:45:56;8.90;99.90
41668;DHT22;27356;50.920;5.350;2023-04-07T04:48:22;8.90;99.90
41668;DHT22;27356;50.920;5.350;2023-04-07T04:50:47;8.90;99.90
41668;DHT22;27356;50.920;5.350;2023-04-07T04:53:13;9.00;99.90
41668;DHT22;27356;50.920;5.350;2023-04-07T04:55:39;9.00;99.90
41668;DHT22;27356;50.920;5.350;2023-04-07T04:58:05;9.00;99.90
41668;DHT22;27356;50.920;5.350;2023-04-07T05:00:31;8.90;99.90
41668;DHT22;27356;50.920;5.350;2023-04-07T05:02:56;8.80;99.90
41668;DHT22;27356;50.920;5.350;2023-04-07T05:05:22;8.70;99.90
41668;DHT22;27356;50.920;5.350;2023-04-07T05:07:48;8.70;99.90
41668;DHT22;27356;50.920;5.350;2023-04-07T05:10:13;8.70;99.90
41668;DHT22;27356;50.920;5.350;2023-04-07T05:12:40;8.70;99.90
41668;DHT22;27356;50.920;5.350;2023-04-07T05:15:06;8.70;99.90
41668;DHT22;27356;50.920;5.350;2023-04-07T05:17:32;8.70;99.90
41668;DHT22;27356;50.920;5.350;2023-04-07T05:19:57;8.80;99.90
41668;DHT22;27356;50.920;5.350;2023-04-07T05:22:23;8.70;99.90
41668;DHT22;27356;50.920;5.350;2023-04-07T05:24:49;8.60;99.90
41668;DHT22;27356;50.920;5.350;2023-04-07T05:27:14;8.60;99.90
41668;DHT22;27356;50.920;5.350;2023-04-07T05:29:40;8.60;99.90
41668;DHT22;27356;50.920;5.350;2023-04-07T05:32:06;8.60;99.90
41668;DHT22;27356;50.920;5.350;2023-04-07T05:34:31;8.60;99.90
41668;DHT22;27356;50.920;5.350;2023-04-07T05:36:57;8.60;99.90
41668;DHT22;27356;50.920;5.350;2023-04-07T05:39:23;8.60;99.90
41668;DHT22;27356;50.920;5.350;2023-04-07T05:41:48;8.50;99.90
41668;DHT22;27356;50.920;5.350;2023-04-07T05:44:14;8.50;99.90
41668;DHT22;27356;50.920;5.350;2023-04-07T05:46:40;8.60;99.90
41668;DHT22;27356;50.920;5.350;2023-04-07T05:49:05;8.60;99.90
41668;DHT22;27356;50.920;5.350;2023-04-07T05:51:31;8.60;99.90
41668;DHT22;27356;50.920;5.350;2023-04-07T05:54:00;8.60;99.90
41668;DHT22;27356;50.920;5.350;2023-04-07T05:56:26;8.60;99.90
41668;DHT22;27356;50.920;5.350;2023-04-07T05:58:52;8.60;99.90
41668;DHT22;27356;50.920;5.350;2023-04-07T06:01:18;8.70;99.90
41668;DHT22;27356;50.920;5.350;2023-04-07T06:03:44;8.70;99.90
41668;DHT22;27356;50.920;5.350;2023-04-07T06:06:09;8.80;99.90
41668;DHT22;27356;50.920;5.350;2023-04-07T06:08:35;8.80;99.90
41668;DHT22;27356;50.920;5.350;2023-04-07T06:11:01;8.90;99.90
41668;DHT22;27356;50.920;5.350;2023-04-07T06:13:26;8.90;99.90
41668;DHT22;27356;50.920;5.350;2023-04-07T06:15:54;8.90;99.90
41668;DHT22;27356;50.920;5.350;2023-04-07T06:18:21;9.00;99.90
41668;DHT22;27356;50.920;5.350;2023-04-07T06:20:47;9.00;99.90
41668;DHT22;27356;50.920;5.350;2023-04-07T06:23:12;9.10;99.90
41668;DHT22;27356;50.920;5.350;2023-04-07T06:25:38;9.10;99.90
41668;DHT22;27356;50.920;5.350;2023-04-07T06:28:04;9.20;99.90
41668;DHT22;27356;50.920;5.350;2023-04-07T06:30:30;9.20;99.90
41668;DHT22;27356;50.920;5.350;2023-04-07T06:32:56;9.40;99.90
41668;DHT22;27356;50.920;5.350;2023-04-07T06:35:22;9.40;99.90
41668;DHT22;27356;50.920;5.350;2023-04-07T06:37:47;9.50;99.90
41668;DHT22;27356;50.920;5.350;2023-04-07T06:40:13;9.30;99.90
41668;DHT22;27356;50.920;5.350;2023-04-07T06:42:39;9.30;99.90
41668;DHT22;27356;50.920;5.350;2023-04-07T06:45:05;9.40;99.90
41668;DHT22;27356;50.920;5.350;2023-04-07T06:47:30;9.40;99.90
41668;DHT22;27356;50.920;5.350;2023-04-07T06:49:56;9.40;99.90
41668;DHT22;27356;50.920;5.350;2023-04-07T06:52:22;9.50;99.90
41668;DHT22;27356;50.920;5.350;2023-04-07T06:54:47;9.50;99.90
41668;DHT22;27356;50.920;5.350;2023-04-07T06:57:13;9.60;99.90
41668;DHT22;27356;50.920;5.350;2023-04-07T06:59:39;9.60;99.90
41668;DHT22;27356;50.920;5.350;2023-04-07T07:02:05;9.70;99.90
41668;DHT22;27356;50.920;5.350;2023-04-07T07:04:33;9.80;99.90
41668;DHT22;27356;50.920;5.350;2023-04-07T07:06:58;9.70;99.90
41668;DHT22;27356;50.920;5.350;2023-04-07T07:09:24;9.80;99.90
41668;DHT22;27356;50.920;5.350;2023-04-07T07:11:52;9.80;99.90
41668;DHT22;27356;50.920;5.350;2023-04-07T07:14:17;9.90;99.90
41668;DHT22;27356;50.920;5.350;2023-04-07T07:16:43;10.10;99.90
41668;DHT22;27356;50.920;5.350;2023-04-07T07:19:09;10.10;99.90
41668;DHT22;27356;50.920;5.350;2023-04-07T07:21:35;9.90;99.90
41668;DHT22;27356;50.920;5.350;2023-04-07T07:24:01;9.90;99.90
41668;DHT22;27356;50.920;5.350;2023-04-07T07:26:26;10.00;99.90
41668;DHT22;27356;50.920;5.350;2023-04-07T07:28:52;10.10;99.90
41668;DHT22;27356;50.920;5.350;2023-04-07T07:31:18;10.20;99.90
41668;DHT22;27356;50.920;5.350;2023-04-07T07:33:44;10.30;99.90
41668;DHT22;27356;50.920;5.350;2023-04-07T07:36:11;10.30;99.90
41668;DHT22;27356;50.920;5.350;2023-04-07T07:38:37;10.20;99.90
41668;DHT22;27356;50.920;5.350;2023-04-07T07:41:03;10.50;99.90
41668;DHT22;27356;50.920;5.350;2023-04-07T07:43:30;10.80;99.90
41668;DHT22;27356;50.920;5.350;2023-04-07T07:45:56;11.50;99.90
41668;DHT22;27356;50.920;5.350;2023-04-07T07:48:22;12.20;99.90
41668;DHT22;27356;50.920;5.350;2023-04-07T07:50:48;12.70;99.90
41668;DHT22;27356;50.920;5.350;2023-04-07T07:53:14;12.90;99.90
41668;DHT22;27356;50.920;5.350;2023-04-07T07:55:40;13.10;99.90
41668;DHT22;27356;50.920;5.350;2023-04-07T07:58:06;13.20;99.90
41668;DHT22;27356;50.920;5.350;2023-04-07T08:00:31;13.40;99.90
41668;DHT22;27356;50.920;5.350;2023-04-07T08:02:57;13.40;99.90
41668;DHT22;27356;50.920;5.350;2023-04-07T08:05:23;13.40;99.90
41668;DHT22;27356;50.920;5.350;2023-04-07T08:07:48;13.30;99.90
41668;DHT22;27356;50.920;5.350;2023-04-07T08:10:14;13.20;99.90
41668;DHT22;27356;50.920;5.350;2023-04-07T08:12:40;13.20;99.90
41668;DHT22;27356;50.920;5.350;2023-04-07T08:15:08;13.10;99.90
41668;DHT22;27356;50.920;5.350;2023-04-07T08:17:35;13.00;99.90
41668;DHT22;27356;50.920;5.350;2023-04-07T08:20:01;13.00;99.90
41668;DHT22;27356;50.920;5.350;2023-04-07T08:22:27;12.70;99.90
41668;DHT22;27356;50.920;5.350;2023-04-07T08:24:53;13.00;99.90
41668;DHT22;27356;50.920;5.350;2023-04-07T08:27:19;12.80;99.90
41668;DHT22;27356;50.920;5.350;2023-04-07T08:29:50;13.00;99.90
41668;DHT22;27356;50.920;5.350;2023-04-07T08:32:22;13.00;99.90
41668;DHT22;27356;50.920;5.350;2023-04-07T08:34:48;13.00;99.90
41668;DHT22;27356;50.920;5.350;2023-04-07T08:37:13;13.00;99.90
41668;DHT22;27356;50.920;5.350;2023-04-07T08:39:39;12.80;99.90
41668;DHT22;27356;50.920;5.350;2023-04-07T08:42:06;12.60;99.90
41668;DHT22;27356;50.920;5.350;2023-04-07T08:44:33;12.60;99.90
41668;DHT22;27356;50.920;5.350;2023-04-07T08:47:03;12.60;99.90
41668;DHT22;27356;50.920;5.350;2023-04-07T08:49:31;12.40;99.90
41668;DHT22;27356;50.920;5.350;2023-04-07T08:51:59;12.60;99.90
41668;DHT22;27356;50.920;5.350;2023-04-07T08:54:25;13.30;99.90
41668;DHT22;27356;50.920;5.350;2023-04-07T08:56:52;13.80;99.90
41668;DHT22;27356;50.920;5.350;2023-04-07T08:59:18;14.90;99.90
41668;DHT22;27356;50.920;5.350;2023-04-07T09:01:47;16.40;99.90
41668;DHT22;27356;50.920;5.350;2023-04-07T09:04:14;17.00;99.90
41668;DHT22;27356;50.920;5.350;2023-04-07T09:06:40;17.30;99.90
41668;DHT22;27356;50.920;5.350;2023-04-07T09:09:05;16.30;99.90
41668;DHT22;27356;50.920;5.350;2023-04-07T09:11:35;15.80;99.90
41668;DHT22;27356;50.920;5.350;2023-04-07T09:14:01;15.10;99.90
41668;DHT22;27356;50.920;5.350;2023-04-07T09:16:28;15.00;99.90
41668;DHT22;27356;50.920;5.350;2023-04-07T09:18:55;14.60;99.90
41668;DHT22;27356;50.920;5.350;2023-04-07T09:21:21;14.50;99.90
41668;DHT22;27356;50.920;5.350;2023-04-07T09:23:47;14.60;99.90
41668;DHT22;27356;50.920;5.350;2023-04-07T09:26:19;14.10;99.90
41668;DHT22;27356;50.920;5.350;2023-04-07T09:28:50;14.10;99.90
41668;DHT22;27356;50.920;5.350;2023-04-07T09:31:16;14.50;99.90
41668;DHT22;27356;50.920;5.350;2023-04-07T09:33:42;14.50;99.90
41668;DHT22;27356;50.920;5.350;2023-04-07T09:36:08;14.70;99.90
41668;DHT22;27356;50.920;5.350;2023-04-07T09:38:36;14.60;99.90
41668;DHT22;27356;50.920;5.350;2023-04-07T09:41:10;14.40;99.90
41668;DHT22;27356;50.920;5.350;2023-04-07T09:43:38;14.40;99.90
41668;DHT22;27356;50.920;5.350;2023-04-07T09:46:12;14.30;99.90
41668;DHT22;27356;50.920;5.350;2023-04-07T09:48:38;14.10;99.90
41668;DHT22;27356;50.920;5.350;2023-04-07T09:51:06;13.90;99.90
41668;DHT22;27356;50.920;5.350;2023-04-07T09:53:50;13.40;99.90
41668;DHT22;27356;50.920;5.350;2023-04-07T09:56:18;13.20;99.90
41668;DHT22;27356;50.920;5.350;2023-04-07T09:58:45;13.10;99.90
41668;DHT22;27356;50.920;5.350;2023-04-07T10:01:14;13.00;99.90
41668;DHT22;27356;50.920;5.350;2023-04-07T10:03:42;12.70;99.90
41668;DHT22;27356;50.920;5.350;2023-04-07T10:06:08;12.50;99.90
41668;DHT22;27356;50.920;5.350;2023-04-07T10:08:36;12.70;99.90
41668;DHT22;27356;50.920;5.350;2023-04-07T10:11:03;12.90;99.90
41668;DHT22;27356;50.920;5.350;2023-04-07T10:13:34;12.90;99.90
41668;DHT22;27356;50.920;5.350;2023-04-07T10:16:03;13.00;99.90
41668;DHT22;27356;50.920;5.350;2023-04-07T10:18:31;13.40;99.90
41668;DHT22;27356;50.920;5.350;2023-04-07T10:21:03;13.70;99.90
41668;DHT22;27356;50.920;5.350;2023-04-07T10:26:28;13.50;99.90
41668;DHT22;27356;50.920;5.350;2023-04-07T10:28:59;13.80;99.90
41668;DHT22;27356;50.920;5.350;2023-04-07T10:31:27;13.90;99.90
41668;DHT22;27356;50.920;5.350;2023-04-07T10:33:53;14.20;99.90
41668;DHT22;27356;50.920;5.350;2023-04-07T10:36:21;14.20;99.90
41668;DHT22;27356;50.920;5.350;2023-04-07T10:41:41;13.80;99.90
41668;DHT22;27356;50.920;5.350;2023-04-07T10:44:08;14.00;99.90
41668;DHT22;27356;50.920;5.350;2023-04-07T10:49:10;14.30;99.90
41668;DHT22;27356;50.920;5.350;2023-04-07T10:51:38;13.60;99.90
41668;DHT22;27356;50.920;5.350;2023-04-07T10:54:22;13.30;99.90
41668;DHT22;27356;50.920;5.350;2023-04-07T10:59:29;13.70;99.90
41668;DHT22;27356;50.920;5.350;2023-04-07T11:04:40;13.80;99.90
41668;DHT22;27356;50.920;5.350;2023-04-07T11:07:07;14.00;99.90
41668;DHT22;27356;50.920;5.350;2023-04-07T11:09:32;14.30;99.90
41668;DHT22;27356;50.920;5.350;2023-04-07T11:11:58;14.50;99.90
41668;DHT22;27356;50.920;5.350;2023-04-07T11:16:52;14.50;99.90
41668;DHT22;27356;50.920;5.350;2023-04-07T11:19:18;14.60;99.90
41668;DHT22;27356;50.920;5.350;2023-04-07T11:21:43;14.90;99.90
41668;DHT22;27356;50.920;5.350;2023-04-07T11:24:09;15.20;99.90
41668;DHT22;27356;50.920;5.350;2023-04-07T11:26:40;15.40;99.90
41668;DHT22;27356;50.920;5.350;2023-04-07T11:29:06;16.10;99.90
41668;DHT22;27356;50.920;5.350;2023-04-07T11:31:32;16.30;99.90
41668;DHT22;27356;50.920;5.350;2023-04-07T11:34:00;16.60;99.90
41668;DHT22;27356;50.920;5.350;2023-04-07T11:36:36;15.90;99.90
41668;DHT22;27356;50.920;5.350;2023-04-07T11:39:02;16.10;99.90
41668;DHT22;27356;50.920;5.350;2023-04-07T11:41:30;15.90;99.90
41668;DHT22;27356;50.920;5.350;2023-04-07T11:44:10;15.90;99.90
41668;DHT22;27356;50.920;5.350;2023-04-07T11:46:58;15.30;99.90
41668;DHT22;27356;50.920;5.350;2023-04-07T11:49:24;14.90;99.90
41668;DHT22;27356;50.920;5.350;2023-04-07T11:52:01;14.30;99.90
41668;DHT22;27356;50.920;5.350;2023-04-07T11:54:46;14.50;99.90
41668;DHT22;27356;50.920;5.350;2023-04-07T11:57:26;14.90;99.90
41668;DHT22;27356;50.920;5.350;2023-04-07T12:00:09;15.30;99.90
41668;DHT22;27356;50.920;5.350;2023-04-07T12:02:35;15.70;99.90
41668;DHT22;27356;50.920;5.350;2023-04-07T12:05:01;16.00;99.90
41668;DHT22;27356;50.920;5.350;2023-04-07T12:07:27;15.60;99.90
41668;DHT22;27356;50.920;5.350;2023-04-07T12:09:53;15.20;99.90
41668;DHT22;27356;50.920;5.350;2023-04-07T12:12:29;15.50;99.90
41668;DHT22;27356;50.920;5.350;2023-04-07T12:14:57;15.40;99.90
41668;DHT22;27356;50.920;5.350;2023-04-07T12:17:25;15.10;99.90
41668;DHT22;27356;50.920;5.350;2023-04-07T12:19:51;14.70;99.90
41668;DHT22;27356;50.920;5.350;2023-04-07T12:22:17;14.30;99.90
41668;DHT22;27356;50.920;5.350;2023-04-07T12:24:43;14.00;99.90
41668;DHT22;27356;50.920;5.350;2023-04-07T12:27:09;13.60;99.90
41668;DHT22;27356;50.920;5.350;2023-04-07T12:29:35;13.40;99.90
41668;DHT22;27356;50.920;5.350;2023-04-07T12:32:04;13.50;99.90
41668;DHT22;27356;50.920;5.350;2023-04-07T12:34:30;13.50;99.90
41668;DHT22;27356;50.920;5.350;2023-04-07T12:36:55;13.40;99.90
41668;DHT22;27356;50.920;5.350;2023-04-07T12:39:21;13.30;99.90
41668;DHT22;27356;50.920;5.350;2023-04-07T12:41:47;13.40;99.90
41668;DHT22;27356;50.920;5.350;2023-04-07T12:44:14;13.10;99.90
41668;DHT22;27356;50.920;5.350;2023-04-07T12:46:40;13.10;99.90
41668;DHT22;27356;50.920;5.350;2023-04-07T12:49:06;13.10;99.90
41668;DHT22;27356;50.920;5.350;2023-04-07T12:51:31;13.30;99.90
41668;DHT22;27356;50.920;5.350;2023-04-07T12:54:01;13.20;99.90
41668;DHT22;27356;50.920;5.350;2023-04-07T12:56:28;13.30;99.90
41668;DHT22;27356;50.920;5.350;2023-04-07T12:58:54;13.30;99.90
41668;DHT22;27356;50.920;5.350;2023-04-07T13:01:20;13.00;99.90
41668;DHT22;27356;50.920;5.350;2023-04-07T13:03:46;12.90;99.90
41668;DHT22;27356;50.920;5.350;2023-04-07T13:06:12;13.10;99.90
41668;DHT22;27356;50.920;5.350;2023-04-07T13:08:38;12.90;99.90
41668;DHT22;27356;50.920;5.350;2023-04-07T13:11:04;12.90;99.90
41668;DHT22;27356;50.920;5.350;2023-04-07T13:13:30;12.90;99.90
41668;DHT22;27356;50.920;5.350;2023-04-07T13:15:56;13.00;99.90
41668;DHT22;27356;50.920;5.350;2023-04-07T13:18:22;13.30;99.90
41668;DHT22;27356;50.920;5.350;2023-04-07T13:20:48;13.60;99.90
41668;DHT22;27356;50.920;5.350;2023-04-07T13:23:14;13.70;99.90
41668;DHT22;27356;50.920;5.350;2023-04-07T13:25:39;13.60;99.90
41668;DHT22;27356;50.920;5.350;2023-04-07T13:28:06;13.70;99.90
41668;DHT22;27356;50.920;5.350;2023-04-07T13:30:32;13.60;99.90
41668;DHT22;27356;50.920;5.350;2023-04-07T13:32:58;13.50;99.90
41668;DHT22;27356;50.920;5.350;2023-04-07T13:35:23;13.70;99.90
41668;DHT22;27356;50.920;5.350;2023-04-07T13:37:49;14.00;99.90
41668;DHT22;27356;50.920;5.350;2023-04-07T13:40:15;14.20;99.90
41668;DHT22;27356;50.920;5.350;2023-04-07T13:42:41;14.30;99.90
41668;DHT22;27356;50.920;5.350;2023-04-07T13:45:07;14.40;99.90
41668;DHT22;27356;50.920;5.350;2023-04-07T13:47:33;14.40;99.90
41668;DHT22;27356;50.920;5.350;2023-04-07T13:50:00;14.20;99.90
41668;DHT22;27356;50.920;5.350;2023-04-07T13:52:26;14.00;99.90
41668;DHT22;27356;50.920;5.350;2023-04-07T13:54:52;13.80;99.90
41668;DHT22;27356;50.920;5.350;2023-04-07T13:57:18;14.20;99.90
41668;DHT22;27356;50.920;5.350;2023-04-07T13:59:49;14.30;99.90
41668;DHT22;27356;50.920;5.350;2023-04-07T14:02:17;14.30;99.90
41668;DHT22;27356;50.920;5.350;2023-04-07T14:04:43;14.60;99.90
41668;DHT22;27356;50.920;5.350;2023-04-07T14:07:09;14.80;99.90
41668;DHT22;27356;50.920;5.350;2023-04-07T14:09:35;14.80;99.90
41668;DHT22;27356;50.920;5.350;2023-04-07T14:12:02;14.90;99.90
41668;DHT22;27356;50.920;5.350;2023-04-07T14:14:28;14.70;99.90
41668;DHT22;27356;50.920;5.350;2023-04-07T14:16:53;14.50;99.90
41668;DHT22;27356;50.920;5.350;2023-04-07T14:19:20;14.20;99.90
41668;DHT22;27356;50.920;5.350;2023-04-07T14:21:52;14.20;99.90
41668;DHT22;27356;50.920;5.350;2023-04-07T14:24:18;13.90;99.90
41668;DHT22;27356;50.920;5.350;2023-04-07T14:26:44;14.10;99.90
41668;DHT22;27356;50.920;5.350;2023-04-07T14:29:11;14.10;99.90
41668;DHT22;27356;50.920;5.350;2023-04-07T14:31:37;13.70;99.90
41668;DHT22;27356;50.920;5.350;2023-04-07T14:34:03;13.70;99.90
41668;DHT22;27356;50.920;5.350;2023-04-07T14:36:30;14.10;99.90
41668;DHT22;27356;50.920;5.350;2023-04-07T14:38:56;14.00;99.90
41668;DHT22;27356;50.920;5.350;2023-04-07T14:41:23;13.80;99.90
41668;DHT22;27356;50.920;5.350;2023-04-07T14:43:49;13.90;99.90
41668;DHT22;27356;50.920;5.350;2023-04-07T14:46:23;13.70;99.90
41668;DHT22;27356;50.920;5.350;2023-04-07T14:48:50;13.60;99.90
41668;DHT22;27356;50.920;5.350;2023-04-07T14:51:19;13.10;99.90
41668;DHT22;27356;50.920;5.350;2023-04-07T14:53:45;12.90;99.90
41668;DHT22;27356;50.920;5.350;2023-04-07T14:56:11;12.70;99.90
41668;DHT22;27356;50.920;5.350;2023-04-07T14:58:37;12.60;99.90
41668;DHT22;27356;50.920;5.350;2023-04-07T15:01:05;12.40;99.90
41668;DHT22;27356;50.920;5.350;2023-04-07T15:03:31;12.30;99.90
41668;DHT22;27356;50.920;5.350;2023-04-07T15:05:57;12.30;99.90
41668;DHT22;27356;50.920;5.350;2023-04-07T15:08:23;12.40;99.90
41668;DHT22;27356;50.920;5.350;2023-04-07T15:10:49;12.40;99.90
41668;DHT22;27356;50.920;5.350;2023-04-07T15:13:15;12.60;99.90
41668;DHT22;27356;50.920;5.350;2023-04-07T15:15:41;12.70;99.90
41668;DHT22;27356;50.920;5.350;2023-04-07T15:18:06;12.90;99.90
41668;DHT22;27356;50.920;5.350;2023-04-07T15:20:32;13.10;99.90
41668;DHT22;27356;50.920;5.350;2023-04-07T15:22:57;13.00;99.90
41668;DHT22;27356;50.920;5.350;2023-04-07T15:25:25;13.20;99.90
41668;DHT22;27356;50.920;5.350;2023-04-07T15:27:51;13.10;99.90
41668;DHT22;27356;50.920;5.350;2023-04-07T15:30:17;13.20;99.90
41668;DHT22;27356;50.920;5.350;2023-04-07T15:32:56;13.40;99.90
41668;DHT22;27356;50.920;5.350;2023-04-07T15:35:22;13.40;99.90
41668;DHT22;27356;50.920;5.350;2023-04-07T15:37:50;13.40;99.90
41668;DHT22;27356;50.920;5.350;2023-04-07T15:40:16;13.40;99.90
41668;DHT22;27356;50.920;5.350;2023-04-07T15:42:41;13.30;99.90
41668;DHT22;27356;50.920;5.350;2023-04-07T15:45:07;13.20;99.90
41668;DHT22;27356;50.920;5.350;2023-04-07T15:47:33;13.40;99.90
41668;DHT22;27356;50.920;5.350;2023-04-07T15:49:59;13.50;99.90
41668;DHT22;27356;50.920;5.350;2023-04-07T15:52:24;13.20;99.90
41668;DHT22;27356;50.920;5.350;2023-04-07T15:54:52;13.30;99.90
41668;DHT22;27356;50.920;5.350;2023-04-07T15:57:17;13.00;99.90
41668;DHT22;27356;50.920;5.350;2023-04-07T15:59:43;13.00;99.90
41668;DHT22;27356;50.920;5.350;2023-04-07T16:02:09;12.90;99.90